sensor_id;sensor_type;location;lat;lon;timestamp;pressure;altitude;pressure_sealevel;temperature;humidity
45813;BME280;31519;45.408;10.962;2023-04-08T00:00:06;100709.78;;;12.38;49.36
45813;BME280;31519;45.408;10.962;2023-04-08T00:03:00;100714.31;;;12.29;49.70
45813;BME280;31519;45.408;10.962;2023-04-08T00:05:28;100720.06;;;12.53;49.08
45813;BME280;31519;45.408;10.962;2023-04-08T00:07:55;100721.41;;;12.42;49.13
45813;BME280;31519;45.408;10.962;2023-04-08T00:10:23;100710.13;;;12.45;48.98
45813;BME280;31519;45.408;10.962;2023-04-08T00:12:52;100718.47;;;12.52;48.80
45813;BME280;31519;45.408;10.962;2023-04-08T00:15:21;100711.91;;;12.67;48.70
45813;BME280;31519;45.408;10.962;2023-04-08T00:17:49;100720.03;;;12.44;48.98
45813;BME280;31519;45.408;10.962;2023-04-08T00:20:17;100718.47;;;12.61;48.41
45813;BME280;31519;45.408;10.962;2023-04-08T00:22:45;100713.09;;;12.43;48.37
45813;BME280;31519;45.408;10.962;2023-04-08T00:25:13;100715.78;;;12.43;48.20
45813;BME280;31519;45.408;10.962;2023-04-08T00:27:41;100715.91;;;12.38;47.95
45813;BME280;31519;45.408;10.962;2023-04-08T00:30:08;100712.66;;;12.02;48.97
45813;BME280;31519;45.408;10.962;2023-04-08T00:32:37;100706.34;;;11.98;49.37
45813;BME280;31519;45.408;10.962;2023-04-08T00:35:05;100704.81;;;12.06;49.26
45813;BME280;31519;45.408;10.962;2023-04-08T00:37:33;100704.53;;;12.16;49.29
45813;BME280;31519;45.408;10.962;2023-04-08T00:40:01;100706.94;;;12.26;49.23
45813;BME280;31519;45.408;10.962;2023-04-08T00:42:29;100698.81;;;12.39;48.66
45813;BME280;31519;45.408;10.962;2023-04-08T00:44:57;100700.16;;;12.28;48.66
45813;BME280;31519;45.408;10.962;2023-04-08T00:47:25;100704.00;;;12.36;48.62
45813;BME280;31519;45.408;10.962;2023-04-08T00:49:53;100691.53;;;12.23;48.75
45813;BME280;31519;45.408;10.962;2023-04-08T00:52:20;100692.94;;;12.29;48.94
45813;BME280;31519;45.408;10.962;2023-04-08T00:54:49;100698.63;;;12.27;48.80
45813;BME280;31519;45.408;10.962;2023-04-08T00:57:18;100700.50;;;12.27;48.80
45813;BME280;31519;45.408;10.962;2023-04-08T00:59:46;100704.94;;;12.40;49.03
45813;BME280;31519;45.408;10.962;2023-04-08T01:02:21;100701.28;;;12.27;49.08
45813;BME280;31519;45.408;10.962;2023-04-08T01:05:09;100705.25;;;12.38;48.91
45813;BME280;31519;45.408;10.962;2023-04-08T01:07:41;100706.63;;;12.19;49.45
45813;BME280;31519;45.408;10.962;2023-04-08T01:10:15;100708.03;;;12.25;49.55
45813;BME280;31519;45.408;10.962;2023-04-08T01:12:47;100704.28;;;12.34;49.39
45813;BME280;31519;45.408;10.962;2023-04-08T01:15:15;100699.34;;;12.11;50.05
45813;BME280;31519;45.408;10.962;2023-04-08T01:17:44;100702.13;;;12.06;50.02
45813;BME280;31519;45.408;10.962;2023-04-08T01:20:12;100701.69;;;12.04;50.31
45813;BME280;31519;45.408;10.962;2023-04-08T01:25:16;100704.25;;;12.17;50.15
45813;BME280;31519;45.408;10.962;2023-04-08T01:27:45;100709.16;;;11.93;51.20
45813;BME280;31519;45.408;10.962;2023-04-08T01:30:16;100699.13;;;11.98;50.95
45813;BME280;31519;45.408;10.962;2023-04-08T01:32:45;100697.44;;;12.11;50.88
45813;BME280;31519;45.408;10.962;2023-04-08T01:35:14;100696.03;;;12.05;50.86
45813;BME280;31519;45.408;10.962;2023-04-08T01:37:42;100693.09;;;11.84;51.30
45813;BME280;31519;45.408;10.962;2023-04-08T01:40:11;100691.75;;;11.95;51.15
45813;BME280;31519;45.408;10.962;2023-04-08T01:42:39;100699.91;;;11.68;51.71
45813;BME280;31519;45.408;10.962;2023-04-08T01:45:11;100701.16;;;11.71;51.79
45813;BME280;31519;45.408;10.962;2023-04-08T01:47:39;100699.84;;;11.82;51.62
45813;BME280;31519;45.408;10.962;2023-04-08T01:50:08;100700.50;;;11.65;52.17
45813;BME280;31519;45.408;10.962;2023-04-08T01:52:36;100694.16;;;11.75;52.38
45813;BME280;31519;45.408;10.962;2023-04-08T01:55:04;100698.59;;;11.57;52.89
45813;BME280;31519;45.408;10.962;2023-04-08T01:57:34;100697.53;;;11.36;53.57
45813;BME280;31519;45.408;10.962;2023-04-08T02:00:07;100692.81;;;11.41;53.43
45813;BME280;31519;45.408;10.962;2023-04-08T02:07:14;100697.97;;;11.60;53.20
45813;BME280;31519;45.408;10.962;2023-04-08T02:09:42;100702.84;;;11.36;53.45
45813;BME280;31519;45.408;10.962;2023-04-08T02:12:10;100701.25;;;11.57;53.05
45813;BME280;31519;45.408;10.962;2023-04-08T02:14:39;100699.22;;;11.54;53.25
45813;BME280;31519;45.408;10.962;2023-04-08T02:17:15;100697.25;;;11.46;53.13
45813;BME280;31519;45.408;10.962;2023-04-08T02:25:06;100698.38;;;11.23;54.28
45813;BME280;31519;45.408;10.962;2023-04-08T02:27:34;100699.69;;;11.34;54.04
45813;BME280;31519;45.408;10.962;2023-04-08T02:30:04;100701.22;;;11.26;54.13
45813;BME280;31519;45.408;10.962;2023-04-08T02:32:33;100701.44;;;11.38;53.58
45813;BME280;31519;45.408;10.962;2023-04-08T02:35:02;100695.66;;;11.36;53.99
45813;BME280;31519;45.408;10.962;2023-04-08T02:37:31;100698.00;;;11.38;54.11
45813;BME280;31519;45.408;10.962;2023-04-08T02:39:59;100692.59;;;11.51;53.96
45813;BME280;31519;45.408;10.962;2023-04-08T02:42:27;100696.97;;;11.47;53.55
45813;BME280;31519;45.408;10.962;2023-04-08T02:44:55;100690.09;;;11.33;53.83
45813;BME280;31519;45.408;10.962;2023-04-08T02:47:23;100695.81;;;11.40;54.03
45813;BME280;31519;45.408;10.962;2023-04-08T02:49:51;100693.75;;;11.37;53.71
45813;BME280;31519;45.408;10.962;2023-04-08T02:52:21;100697.75;;;11.48;53.72
45813;BME280;31519;45.408;10.962;2023-04-08T02:54:49;100691.84;;;11.60;53.15
45813;BME280;31519;45.408;10.962;2023-04-08T02:57:17;100691.78;;;11.51;53.51
45813;BME280;31519;45.408;10.962;2023-04-08T02:59:45;100694.59;;;11.24;53.87
45813;BME280;31519;45.408;10.962;2023-04-08T03:02:12;100694.22;;;11.39;54.12
45813;BME280;31519;45.408;10.962;2023-04-08T03:04:40;100686.81;;;11.58;53.51
45813;BME280;31519;45.408;10.962;2023-04-08T03:07:08;100687.78;;;11.62;53.42
45813;BME280;31519;45.408;10.962;2023-04-08T03:09:36;100682.78;;;11.69;53.06
45813;BME280;31519;45.408;10.962;2023-04-08T03:12:03;100680.03;;;11.74;52.79
45813;BME280;31519;45.408;10.962;2023-04-08T03:14:31;100678.31;;;11.56;53.16
45813;BME280;31519;45.408;10.962;2023-04-08T03:16:59;100676.13;;;11.80;52.29
45813;BME280;31519;45.408;10.962;2023-04-08T03:19:27;100687.28;;;11.82;52.09
45813;BME280;31519;45.408;10.962;2023-04-08T03:21:54;100683.28;;;11.71;52.00
45813;BME280;31519;45.408;10.962;2023-04-08T03:24:22;100689.38;;;11.63;52.20
45813;BME280;31519;45.408;10.962;2023-04-08T03:26:50;100689.75;;;11.48;52.74
45813;BME280;31519;45.408;10.962;2023-04-08T03:29:18;100686.28;;;11.47;52.95
45813;BME280;31519;45.408;10.962;2023-04-08T03:31:46;100695.69;;;11.45;52.72
45813;BME280;31519;45.408;10.962;2023-04-08T03:34:14;100691.28;;;11.71;52.17
45813;BME280;31519;45.408;10.962;2023-04-08T03:36:41;100693.47;;;11.69;52.14
45813;BME280;31519;45.408;10.962;2023-04-08T03:39:09;100693.72;;;11.81;51.84
45813;BME280;31519;45.408;10.962;2023-04-08T03:41:36;100694.91;;;12.06;51.21
45813;BME280;31519;45.408;10.962;2023-04-08T03:44:04;100698.00;;;11.91;51.25
45813;BME280;31519;45.408;10.962;2023-04-08T03:46:32;100697.25;;;11.68;51.88
45813;BME280;31519;45.408;10.962;2023-04-08T03:49:00;100687.34;;;11.91;51.68
45813;BME280;31519;45.408;10.962;2023-04-08T03:51:27;100696.91;;;11.92;51.53
45813;BME280;31519;45.408;10.962;2023-04-08T03:53:55;100699.75;;;11.95;51.25
45813;BME280;31519;45.408;10.962;2023-04-08T03:56:23;100696.75;;;11.97;51.25
45813;BME280;31519;45.408;10.962;2023-04-08T03:58:52;100701.75;;;11.81;51.29
45813;BME280;31519;45.408;10.962;2023-04-08T04:01:20;100705.53;;;11.67;51.79
45813;BME280;31519;45.408;10.962;2023-04-08T04:03:48;100701.47;;;11.69;51.89
45813;BME280;31519;45.408;10.962;2023-04-08T04:06:15;100706.09;;;11.55;53.02
45813;BME280;31519;45.408;10.962;2023-04-08T04:08:43;100706.09;;;11.33;54.02
45813;BME280;31519;45.408;10.962;2023-04-08T04:11:11;100705.81;;;11.12;54.04
45813;BME280;31519;45.408;10.962;2023-04-08T04:13:39;100702.84;;;11.14;54.07
45813;BME280;31519;45.408;10.962;2023-04-08T04:16:06;100699.50;;;10.86;54.81
45813;BME280;31519;45.408;10.962;2023-04-08T04:18:34;100697.97;;;10.93;54.28
45813;BME280;31519;45.408;10.962;2023-04-08T04:21:04;100702.47;;;10.71;55.17
45813;BME280;31519;45.408;10.962;2023-04-08T04:23:32;100706.03;;;11.02;54.63
45813;BME280;31519;45.408;10.962;2023-04-08T04:26:00;100707.38;;;10.77;56.01
45813;BME280;31519;45.408;10.962;2023-04-08T04:28:28;100708.25;;;10.86;56.24
45813;BME280;31519;45.408;10.962;2023-04-08T04:30:55;100706.38;;;11.23;55.21
45813;BME280;31519;45.408;10.962;2023-04-08T04:33:23;100720.00;;;11.21;55.16
45813;BME280;31519;45.408;10.962;2023-04-08T04:35:51;100712.13;;;11.16;55.61
45813;BME280;31519;45.408;10.962;2023-04-08T04:38:19;100708.84;;;11.19;55.05
45813;BME280;31519;45.408;10.962;2023-04-08T04:40:46;100717.81;;;11.23;54.79
45813;BME280;31519;45.408;10.962;2023-04-08T04:43:14;100723.34;;;11.27;54.54
45813;BME280;31519;45.408;10.962;2023-04-08T04:45:42;100726.19;;;11.52;53.63
45813;BME280;31519;45.408;10.962;2023-04-08T04:48:11;100726.06;;;11.57;53.17
45813;BME280;31519;45.408;10.962;2023-04-08T04:50:39;100724.84;;;11.64;53.03
45813;BME280;31519;45.408;10.962;2023-04-08T04:53:07;100729.09;;;11.42;54.15
45813;BME280;31519;45.408;10.962;2023-04-08T04:55:34;100732.47;;;11.56;54.05
45813;BME280;31519;45.408;10.962;2023-04-08T04:58:05;100736.84;;;11.52;53.66
45813;BME280;31519;45.408;10.962;2023-04-08T05:00:33;100737.03;;;11.56;53.66
45813;BME280;31519;45.408;10.962;2023-04-08T05:03:01;100746.59;;;11.57;53.32
45813;BME280;31519;45.408;10.962;2023-04-08T05:05:28;100749.94;;;11.63;52.74
45813;BME280;31519;45.408;10.962;2023-04-08T05:07:56;100743.59;;;11.50;52.95
45813;BME280;31519;45.408;10.962;2023-04-08T05:10:24;100757.50;;;11.47;53.10
45813;BME280;31519;45.408;10.962;2023-04-08T05:12:51;100749.88;;;11.54;53.58
45813;BME280;31519;45.408;10.962;2023-04-08T05:15:19;100751.53;;;11.64;53.47
45813;BME280;31519;45.408;10.962;2023-04-08T05:17:48;100752.28;;;11.42;53.73
45813;BME280;31519;45.408;10.962;2023-04-08T05:20:15;100746.06;;;11.46;54.19
45813;BME280;31519;45.408;10.962;2023-04-08T05:22:44;100743.66;;;11.59;53.84
45813;BME280;31519;45.408;10.962;2023-04-08T05:25:11;100745.88;;;11.21;54.11
45813;BME280;31519;45.408;10.962;2023-04-08T05:27:39;100750.00;;;11.27;54.72
45813;BME280;31519;45.408;10.962;2023-04-08T05:30:07;100761.00;;;11.11;55.19
45813;BME280;31519;45.408;10.962;2023-04-08T05:32:36;100759.28;;;11.74;53.47
45813;BME280;31519;45.408;10.962;2023-04-08T05:35:04;100770.56;;;11.71;53.11
45813;BME280;31519;45.408;10.962;2023-04-08T05:37:31;100776.31;;;12.09;52.09
45813;BME280;31519;45.408;10.962;2023-04-08T05:39:59;100777.50;;;12.33;51.55
45813;BME280;31519;45.408;10.962;2023-04-08T05:42:27;100789.88;;;12.60;50.74
45813;BME280;31519;45.408;10.962;2023-04-08T05:44:55;100791.38;;;12.44;51.08
45813;BME280;31519;45.408;10.962;2023-04-08T05:47:23;100793.16;;;12.57;50.74
45813;BME280;31519;45.408;10.962;2023-04-08T05:49:50;100799.53;;;12.78;50.03
45813;BME280;31519;45.408;10.962;2023-04-08T05:52:18;100798.38;;;12.71;50.21
45813;BME280;31519;45.408;10.962;2023-04-08T05:54:46;100792.34;;;12.48;51.26
45813;BME280;31519;45.408;10.962;2023-04-08T05:57:14;100794.53;;;11.84;53.94
45813;BME280;31519;45.408;10.962;2023-04-08T05:59:43;100797.91;;;11.98;53.57
45813;BME280;31519;45.408;10.962;2023-04-08T06:02:11;100798.69;;;11.19;55.41
45813;BME280;31519;45.408;10.962;2023-04-08T06:04:38;100796.75;;;11.10;56.35
45813;BME280;31519;45.408;10.962;2023-04-08T06:07:06;100803.75;;;11.06;57.36
45813;BME280;31519;45.408;10.962;2023-04-08T06:09:34;100804.59;;;11.29;56.70
45813;BME280;31519;45.408;10.962;2023-04-08T06:12:03;100803.09;;;11.37;56.53
45813;BME280;31519;45.408;10.962;2023-04-08T06:14:31;100800.34;;;11.28;56.52
45813;BME280;31519;45.408;10.962;2023-04-08T06:16:59;100806.22;;;11.17;57.00
45813;BME280;31519;45.408;10.962;2023-04-08T06:19:27;100810.50;;;11.76;56.07
45813;BME280;31519;45.408;10.962;2023-04-08T06:21:54;100811.72;;;11.56;56.77
45813;BME280;31519;45.408;10.962;2023-04-08T06:24:25;100816.19;;;11.83;56.45
45813;BME280;31519;45.408;10.962;2023-04-08T06:26:54;100808.69;;;12.16;55.54
45813;BME280;31519;45.408;10.962;2023-04-08T06:29:21;100817.34;;;12.21;54.77
45813;BME280;31519;45.408;10.962;2023-04-08T06:31:50;100817.03;;;12.14;54.54
45813;BME280;31519;45.408;10.962;2023-04-08T06:34:17;100813.97;;;12.38;53.81
45813;BME280;31519;45.408;10.962;2023-04-08T06:36:45;100812.00;;;12.52;53.23
45813;BME280;31519;45.408;10.962;2023-04-08T06:39:13;100811.09;;;12.65;52.93
45813;BME280;31519;45.408;10.962;2023-04-08T06:41:43;100819.53;;;12.50;53.78
45813;BME280;31519;45.408;10.962;2023-04-08T06:44:26;100818.28;;;12.56;53.94
45813;BME280;31519;45.408;10.962;2023-04-08T06:46:54;100814.56;;;12.66;53.83
45813;BME280;31519;45.408;10.962;2023-04-08T06:49:22;100822.66;;;12.13;56.29
45813;BME280;31519;45.408;10.962;2023-04-08T06:51:50;100813.13;;;12.60;55.17
45813;BME280;31519;45.408;10.962;2023-04-08T06:54:18;100822.53;;;12.97;54.82
45813;BME280;31519;45.408;10.962;2023-04-08T06:56:46;100823.97;;;13.11;53.54
45813;BME280;31519;45.408;10.962;2023-04-08T06:59:14;100822.56;;;13.14;54.16
45813;BME280;31519;45.408;10.962;2023-04-08T07:01:42;100817.56;;;13.47;53.54
45813;BME280;31519;45.408;10.962;2023-04-08T07:04:09;100816.47;;;13.56;53.09
45813;BME280;31519;45.408;10.962;2023-04-08T07:06:38;100821.94;;;13.86;52.99
45813;BME280;31519;45.408;10.962;2023-04-08T07:09:05;100823.03;;;14.02;52.21
45813;BME280;31519;45.408;10.962;2023-04-08T07:11:33;100827.47;;;13.72;53.04
45813;BME280;31519;45.408;10.962;2023-04-08T07:14:01;100816.44;;;13.73;52.84
45813;BME280;31519;45.408;10.962;2023-04-08T07:16:29;100821.28;;;13.89;52.48
45813;BME280;31519;45.408;10.962;2023-04-08T07:18:56;100830.44;;;13.70;53.26
45813;BME280;31519;45.408;10.962;2023-04-08T07:21:24;100823.53;;;13.78;52.68
45813;BME280;31519;45.408;10.962;2023-04-08T07:23:52;100824.44;;;13.91;52.85
45813;BME280;31519;45.408;10.962;2023-04-08T07:26:20;100822.13;;;13.38;54.81
45813;BME280;31519;45.408;10.962;2023-04-08T07:28:48;100826.84;;;13.58;53.85
45813;BME280;31519;45.408;10.962;2023-04-08T07:31:17;100823.59;;;14.25;52.00
45813;BME280;31519;45.408;10.962;2023-04-08T07:33:45;100827.59;;;14.01;52.56
45813;BME280;31519;45.408;10.962;2023-04-08T07:36:13;100830.84;;;14.24;52.14
45813;BME280;31519;45.408;10.962;2023-04-08T07:38:41;100833.78;;;14.40;51.20
45813;BME280;31519;45.408;10.962;2023-04-08T07:41:09;100834.72;;;14.82;50.12
45813;BME280;31519;45.408;10.962;2023-04-08T07:43:37;100831.72;;;14.83;50.12
45813;BME280;31519;45.408;10.962;2023-04-08T07:46:05;100836.94;;;15.09;49.50
45813;BME280;31519;45.408;10.962;2023-04-08T07:48:33;100835.91;;;14.08;52.06
45813;BME280;31519;45.408;10.962;2023-04-08T07:51:02;100836.47;;;14.78;50.57
45813;BME280;31519;45.408;10.962;2023-04-08T07:53:36;100838.75;;;14.96;50.18
45813;BME280;31519;45.408;10.962;2023-04-08T07:56:12;100838.44;;;15.19;49.24
45813;BME280;31519;45.408;10.962;2023-04-08T07:58:40;100850.94;;;15.35;49.05
45813;BME280;31519;45.408;10.962;2023-04-08T08:01:18;100841.66;;;14.83;49.90
45813;BME280;31519;45.408;10.962;2023-04-08T08:03:48;100844.84;;;15.56;49.25
45813;BME280;31519;45.408;10.962;2023-04-08T08:06:16;100836.94;;;15.09;49.47
45813;BME280;31519;45.408;10.962;2023-04-08T08:08:44;100832.75;;;15.82;48.04
45813;BME280;31519;45.408;10.962;2023-04-08T08:11:12;100830.88;;;15.95;47.03
45813;BME280;31519;45.408;10.962;2023-04-08T08:13:40;100834.25;;;16.49;44.82
45813;BME280;31519;45.408;10.962;2023-04-08T08:16:08;100830.97;;;16.19;46.48
45813;BME280;31519;45.408;10.962;2023-04-08T08:18:38;100825.19;;;15.64;47.71
45813;BME280;31519;45.408;10.962;2023-04-08T08:21:07;100830.06;;;15.41;48.85
45813;BME280;31519;45.408;10.962;2023-04-08T08:23:35;100832.59;;;15.67;47.98
45813;BME280;31519;45.408;10.962;2023-04-08T08:26:05;100835.91;;;16.17;46.93
45813;BME280;31519;45.408;10.962;2023-04-08T08:28:33;100834.97;;;16.70;45.19
45813;BME280;31519;45.408;10.962;2023-04-08T08:31:01;100827.84;;;16.29;47.19
45813;BME280;31519;45.408;10.962;2023-04-08T08:33:29;100834.03;;;15.97;48.04
45813;BME280;31519;45.408;10.962;2023-04-08T08:35:57;100829.84;;;16.20;47.35
45813;BME280;31519;45.408;10.962;2023-04-08T08:38:25;100836.50;;;16.59;46.23
45813;BME280;31519;45.408;10.962;2023-04-08T08:40:54;100841.75;;;17.16;44.76
45813;BME280;31519;45.408;10.962;2023-04-08T08:43:23;100847.19;;;17.44;43.43
45813;BME280;31519;45.408;10.962;2023-04-08T08:45:51;100840.91;;;16.76;44.11
45813;BME280;31519;45.408;10.962;2023-04-08T08:48:19;100842.28;;;17.74;42.51
45813;BME280;31519;45.408;10.962;2023-04-08T08:50:47;100841.38;;;18.41;41.65
45813;BME280;31519;45.408;10.962;2023-04-08T08:53:14;100844.03;;;18.26;41.16
45813;BME280;31519;45.408;10.962;2023-04-08T08:55:43;100850.16;;;17.15;42.98
45813;BME280;31519;45.408;10.962;2023-04-08T08:58:31;100853.09;;;17.10;42.54
45813;BME280;31519;45.408;10.962;2023-04-08T09:00:59;100850.44;;;17.50;42.38
45813;BME280;31519;45.408;10.962;2023-04-08T09:03:27;100839.31;;;17.63;41.67
45813;BME280;31519;45.408;10.962;2023-04-08T09:05:56;100850.31;;;17.18;41.74
45813;BME280;31519;45.408;10.962;2023-04-08T09:08:31;100846.47;;;17.19;41.72
45813;BME280;31519;45.408;10.962;2023-04-08T09:13:56;100842.22;;;17.18;40.76
45813;BME280;31519;45.408;10.962;2023-04-08T09:16:24;100839.66;;;17.62;38.93
45813;BME280;31519;45.408;10.962;2023-04-08T09:18:53;100834.81;;;17.55;38.50
45813;BME280;31519;45.408;10.962;2023-04-08T09:21:21;100828.09;;;17.61;38.83
45813;BME280;31519;45.408;10.962;2023-04-08T09:23:50;100830.75;;;19.15;37.00
45813;BME280;31519;45.408;10.962;2023-04-08T09:26:21;100840.41;;;19.70;35.79
45813;BME280;31519;45.408;10.962;2023-04-08T09:29:08;100826.91;;;19.51;34.45
45813;BME280;31519;45.408;10.962;2023-04-08T09:31:52;100830.31;;;18.31;35.75
45813;BME280;31519;45.408;10.962;2023-04-08T09:34:21;100833.09;;;18.34;35.66
45813;BME280;31519;45.408;10.962;2023-04-08T09:36:50;100821.50;;;18.81;35.25
45813;BME280;31519;45.408;10.962;2023-04-08T09:39:18;100827.72;;;18.66;34.79
45813;BME280;31519;45.408;10.962;2023-04-08T09:41:47;100825.66;;;18.94;34.46
45813;BME280;31519;45.408;10.962;2023-04-08T09:44:15;100820.75;;;19.34;34.07
45813;BME280;31519;45.408;10.962;2023-04-08T09:51:53;100824.09;;;19.85;33.03
45813;BME280;31519;45.408;10.962;2023-04-08T09:57:15;100817.94;;;20.08;32.53
45813;BME280;31519;45.408;10.962;2023-04-08T09:59:48;100818.13;;;20.90;31.21
45813;BME280;31519;45.408;10.962;2023-04-08T10:02:21;100814.88;;;21.07;30.56
45813;BME280;31519;45.408;10.962;2023-04-08T10:04:52;100806.03;;;21.40;30.31
45813;BME280;31519;45.408;10.962;2023-04-08T10:07:23;100807.31;;;21.16;30.68
45813;BME280;31519;45.408;10.962;2023-04-08T10:09:50;100809.25;;;20.41;31.03
45813;BME280;31519;45.408;10.962;2023-04-08T10:12:19;100812.06;;;20.25;32.02
45813;BME280;31519;45.408;10.962;2023-04-08T10:17:34;100815.56;;;19.83;31.29
45813;BME280;31519;45.408;10.962;2023-04-08T10:20:03;100819.97;;;19.91;30.74
45813;BME280;31519;45.408;10.962;2023-04-08T10:27:43;100812.91;;;22.45;28.44
45813;BME280;31519;45.408;10.962;2023-04-08T10:32:55;100816.84;;;22.07;28.26
45813;BME280;31519;45.408;10.962;2023-04-08T10:35:29;100811.59;;;22.76;27.34
45813;BME280;31519;45.408;10.962;2023-04-08T10:37:58;100801.88;;;22.71;27.11
45813;BME280;31519;45.408;10.962;2023-04-08T10:40:26;100798.38;;;22.71;26.17
45813;BME280;31519;45.408;10.962;2023-04-08T10:42:57;100795.47;;;23.04;26.22
45813;BME280;31519;45.408;10.962;2023-04-08T10:45:25;100800.25;;;23.32;25.64
45813;BME280;31519;45.408;10.962;2023-04-08T10:47:53;100796.56;;;22.38;26.17
45813;BME280;31519;45.408;10.962;2023-04-08T10:50:21;100802.50;;;22.06;26.71
45813;BME280;31519;45.408;10.962;2023-04-08T10:52:52;100792.59;;;22.25;26.40
45813;BME280;31519;45.408;10.962;2023-04-08T10:55:23;100795.31;;;22.25;26.40
45813;BME280;31519;45.408;10.962;2023-04-08T10:57:54;100798.34;;;22.20;25.94
45813;BME280;31519;45.408;10.962;2023-04-08T11:00:37;100788.78;;;22.87;25.03
45813;BME280;31519;45.408;10.962;2023-04-08T11:03:07;100799.56;;;22.26;25.44
45813;BME280;31519;45.408;10.962;2023-04-08T11:05:35;100787.41;;;22.09;25.85
45813;BME280;31519;45.408;10.962;2023-04-08T11:08:04;100790.81;;;22.46;26.00
45813;BME280;31519;45.408;10.962;2023-04-08T11:10:38;100788.47;;;22.96;24.88
45813;BME280;31519;45.408;10.962;2023-04-08T11:13:06;100791.50;;;23.81;24.39
45813;BME280;31519;45.408;10.962;2023-04-08T11:15:36;100786.03;;;22.84;24.22
45813;BME280;31519;45.408;10.962;2023-04-08T11:18:04;100779.25;;;21.68;24.85
45813;BME280;31519;45.408;10.962;2023-04-08T11:20:32;100781.13;;;21.31;25.42
45813;BME280;31519;45.408;10.962;2023-04-08T11:23:03;100776.97;;;22.66;24.33
45813;BME280;31519;45.408;10.962;2023-04-08T11:25:31;100776.66;;;22.71;24.98
45813;BME280;31519;45.408;10.962;2023-04-08T11:27:59;100784.44;;;21.84;26.07
45813;BME280;31519;45.408;10.962;2023-04-08T11:30:27;100784.88;;;20.90;26.45
45813;BME280;31519;45.408;10.962;2023-04-08T11:32:56;100779.06;;;21.51;26.53
45813;BME280;31519;45.408;10.962;2023-04-08T11:35:28;100778.84;;;21.33;26.07
45813;BME280;31519;45.408;10.962;2023-04-08T11:37:57;100774.38;;;20.88;26.78
45813;BME280;31519;45.408;10.962;2023-04-08T11:40:24;100772.06;;;20.60;26.71
45813;BME280;31519;45.408;10.962;2023-04-08T11:42:52;100774.25;;;20.06;27.40
45813;BME280;31519;45.408;10.962;2023-04-08T11:45:20;100769.03;;;20.39;27.13
45813;BME280;31519;45.408;10.962;2023-04-08T11:47:48;100768.50;;;20.83;26.26
45813;BME280;31519;45.408;10.962;2023-04-08T11:50:25;100762.38;;;20.33;26.59
45813;BME280;31519;45.408;10.962;2023-04-08T11:52:53;100764.34;;;20.62;26.71
45813;BME280;31519;45.408;10.962;2023-04-08T11:55:23;100758.63;;;20.41;26.34
45813;BME280;31519;45.408;10.962;2023-04-08T11:57:52;100762.72;;;20.31;26.28
45813;BME280;31519;45.408;10.962;2023-04-08T12:00:20;100754.25;;;20.33;26.61
45813;BME280;31519;45.408;10.962;2023-04-08T12:02:49;100746.66;;;20.42;26.20
45813;BME280;31519;45.408;10.962;2023-04-08T12:05:18;100747.44;;;20.69;25.83
45813;BME280;31519;45.408;10.962;2023-04-08T12:07:46;100742.44;;;21.01;25.84
45813;BME280;31519;45.408;10.962;2023-04-08T12:10:14;100750.00;;;21.14;26.07
45813;BME280;31519;45.408;10.962;2023-04-08T12:12:42;100745.66;;;21.10;25.73
45813;BME280;31519;45.408;10.962;2023-04-08T12:15:10;100750.34;;;20.83;26.00
45813;BME280;31519;45.408;10.962;2023-04-08T12:17:38;100752.44;;;21.27;25.64
45813;BME280;31519;45.408;10.962;2023-04-08T12:20:06;100752.97;;;20.76;25.37
45813;BME280;31519;45.408;10.962;2023-04-08T12:22:34;100747.53;;;21.06;25.70
45813;BME280;31519;45.408;10.962;2023-04-08T12:25:02;100757.16;;;20.73;25.35
45813;BME280;31519;45.408;10.962;2023-04-08T12:27:30;100750.69;;;21.11;25.42
45813;BME280;31519;45.408;10.962;2023-04-08T12:30:01;100750.47;;;21.57;25.11
45813;BME280;31519;45.408;10.962;2023-04-08T12:32:30;100743.84;;;20.61;25.65
45813;BME280;31519;45.408;10.962;2023-04-08T12:34:58;100747.53;;;20.50;26.22
45813;BME280;31519;45.408;10.962;2023-04-08T12:37:26;100745.88;;;20.98;25.83
45813;BME280;31519;45.408;10.962;2023-04-08T12:39:54;100740.09;;;20.69;25.90
45813;BME280;31519;45.408;10.962;2023-04-08T12:42:22;100754.56;;;20.54;25.85
45813;BME280;31519;45.408;10.962;2023-04-08T12:44:49;100747.53;;;21.06;25.49
45813;BME280;31519;45.408;10.962;2023-04-08T12:47:17;100739.84;;;21.08;25.40
45813;BME280;31519;45.408;10.962;2023-04-08T12:49:46;100748.84;;;21.49;25.21
45813;BME280;31519;45.408;10.962;2023-04-08T12:52:16;100736.22;;;22.04;24.79
45813;BME280;31519;45.408;10.962;2023-04-08T12:54:44;100737.97;;;22.30;23.90
45813;BME280;31519;45.408;10.962;2023-04-08T12:57:12;100734.94;;;22.42;23.89
45813;BME280;31519;45.408;10.962;2023-04-08T12:59:40;100729.72;;;22.70;23.53
45813;BME280;31519;45.408;10.962;2023-04-08T13:02:08;100726.66;;;21.77;24.61
45813;BME280;31519;45.408;10.962;2023-04-08T13:04:35;100721.84;;;22.54;24.39
45813;BME280;31519;45.408;10.962;2023-04-08T13:07:03;100724.00;;;22.89;24.07
45813;BME280;31519;45.408;10.962;2023-04-08T13:09:31;100718.00;;;21.64;24.69
45813;BME280;31519;45.408;10.962;2023-04-08T13:11:59;100724.03;;;22.31;24.75
45813;BME280;31519;45.408;10.962;2023-04-08T13:14:26;100717.38;;;22.87;23.61
45813;BME280;31519;45.408;10.962;2023-04-08T13:16:55;100715.97;;;22.45;24.36
45813;BME280;31519;45.408;10.962;2023-04-08T13:19:23;100711.94;;;21.78;24.97
45813;BME280;31519;45.408;10.962;2023-04-08T13:21:50;100718.38;;;22.61;24.42